createdAt,value
2022-11-20T00:00:56.032Z,56.53
2022-11-20T00:01:56.133Z,56.82
2022-11-20T00:02:55.878Z,56.24
2022-11-20T00:03:56.079Z,55.80
2022-11-20T00:04:55.962Z,57.51
2022-11-20T00:05:56.050Z,56.87
2022-11-20T00:06:55.918Z,57.76
2022-11-20T00:07:55.908Z,57.71
2022-11-20T00:08:56.041Z,56.77
2022-11-20T00:09:55.877Z,57.61
2022-11-20T00:10:55.909Z,56.77
2022-11-20T00:11:55.870Z,57.05
2022-11-20T00:12:55.872Z,58.11
2022-11-20T00:13:55.850Z,56.62
2022-11-20T00:14:55.923Z,56.73
2022-11-20T00:15:55.937Z,57.48
2022-11-20T00:16:55.915Z,55.94
2022-11-20T00:17:55.944Z,57.29
2022-11-20T00:18:55.935Z,58.14
2022-11-20T00:19:55.964Z,57.01
2022-11-20T00:20:55.921Z,57.18
2022-11-20T00:21:55.892Z,57.84
2022-11-20T00:22:55.882Z,57.42
2022-11-20T00:23:55.911Z,57.10
2022-11-20T00:24:56.480Z,57.24
2022-11-20T00:25:55.805Z,57.11
2022-11-20T00:26:55.774Z,56.50
2022-11-20T00:27:55.920Z,57.24
2022-11-20T00:28:55.861Z,56.38
2022-11-20T00:29:55.907Z,57.06
2022-11-20T00:30:55.869Z,58.74
2022-11-20T00:31:55.989Z,58.65
2022-11-20T00:32:55.797Z,57.27
2022-11-20T00:33:55.818Z,58.00
2022-11-20T00:34:55.806Z,57.72
2022-11-20T00:35:55.867Z,57.38
2022-11-20T00:36:55.854Z,57.47
2022-11-20T00:37:55.860Z,56.99
2022-11-20T00:38:55.848Z,57.40
2022-11-20T00:39:55.891Z,56.44
2022-11-20T00:40:55.703Z,55.90
2022-11-20T00:41:55.689Z,56.41
2022-11-20T00:42:55.749Z,57.16
2022-11-20T00:43:55.680Z,57.24
2022-11-20T00:44:55.719Z,55.83
2022-11-20T00:45:55.813Z,55.43
2022-11-20T00:46:55.739Z,56.54
2022-11-20T00:47:55.704Z,57.13
2022-11-20T00:48:55.795Z,56.81
2022-11-20T00:49:55.807Z,56.31
2022-11-20T00:50:55.792Z,57.08
2022-11-20T00:51:55.682Z,56.64
2022-11-20T00:52:55.679Z,56.95
2022-11-20T00:53:55.753Z,57.82
2022-11-20T00:54:55.693Z,56.00
2022-11-20T00:55:55.707Z,56.15
2022-11-20T00:56:55.600Z,56.61
2022-11-20T00:57:55.559Z,58.50
2022-11-20T00:58:55.686Z,56.74
2022-11-20T00:59:55.609Z,56.15
2022-11-20T01:00:55.669Z,57.02
2022-11-20T01:01:55.523Z,56.46
2022-11-20T01:02:55.535Z,56.31
2022-11-20T01:03:55.639Z,56.04
2022-11-20T01:04:55.697Z,56.06
2022-11-20T01:05:55.586Z,56.11
2022-11-20T01:06:55.679Z,56.03
2022-11-20T01:07:55.690Z,56.21
2022-11-20T01:08:55.579Z,56.44
2022-11-20T01:09:55.594Z,55.93
2022-11-20T01:10:55.595Z,56.42
2022-11-20T01:11:55.547Z,55.37
2022-11-20T01:12:55.547Z,55.49
2022-11-20T01:13:55.561Z,55.24
2022-11-20T01:14:55.556Z,54.91
2022-11-20T01:15:55.564Z,54.81
2022-11-20T01:16:55.444Z,55.72
2022-11-20T01:17:55.512Z,55.51
2022-11-20T01:18:55.580Z,55.94
2022-11-20T01:19:55.511Z,56.19
2022-11-20T01:20:55.468Z,55.64
2022-11-20T01:21:55.599Z,56.15
2022-11-20T01:22:55.475Z,56.93
2022-11-20T01:23:55.573Z,55.75
2022-11-20T01:24:55.575Z,55.36
2022-11-20T01:25:55.469Z,56.77
2022-11-20T01:26:55.567Z,55.30
2022-11-20T01:27:55.482Z,56.70
2022-11-20T01:28:55.497Z,55.77
2022-11-20T01:30:00.836Z,56.36
2022-11-20T01:30:57.424Z,55.99
2022-11-20T01:31:55.359Z,55.49
2022-11-20T01:32:55.547Z,56.90
2022-11-20T01:33:55.339Z,55.76
2022-11-20T01:34:55.427Z,56.03
2022-11-20T01:35:55.403Z,54.93
2022-11-20T01:36:55.390Z,55.51
2022-11-20T01:37:55.445Z,55.54
2022-11-20T01:38:55.393Z,55.82
2022-11-20T01:39:55.391Z,56.10
2022-11-20T01:40:55.363Z,56.69
2022-11-20T01:41:55.342Z,55.78
2022-11-20T01:42:55.421Z,55.59
2022-11-20T01:43:55.404Z,56.33
2022-11-20T01:44:55.372Z,55.99
2022-11-20T01:45:55.330Z,56.42
2022-11-20T01:46:55.351Z,55.26
2022-11-20T01:47:55.448Z,55.28
2022-11-20T01:48:55.426Z,55.38
2022-11-20T01:49:55.351Z,56.04
2022-11-20T01:51:14.460Z,56.12
2022-11-20T01:51:56.276Z,57.45
2022-11-20T01:52:55.243Z,57.17
2022-11-20T01:53:55.210Z,56.91
2022-11-20T01:54:55.247Z,57.16
2022-11-20T01:55:55.208Z,56.22
2022-11-20T01:56:55.225Z,56.12
2022-11-20T01:57:55.170Z,56.71
2022-11-20T01:58:55.188Z,56.05
2022-11-20T01:59:55.212Z,56.40
2022-11-20T02:00:55.287Z,57.35
2022-11-20T02:01:55.267Z,56.88
2022-11-20T02:02:55.138Z,56.62
2022-11-20T02:03:55.264Z,56.55
2022-11-20T02:04:55.225Z,56.44
2022-11-20T02:05:55.273Z,56.20
2022-11-20T02:06:55.209Z,56.33
2022-11-20T02:07:55.253Z,56.09
2022-11-20T02:08:55.275Z,56.79
2022-11-20T02:09:58.742Z,57.07
2022-11-20T02:10:56.211Z,57.25
2022-11-20T02:11:55.120Z,56.26
2022-11-20T02:12:55.124Z,56.60
2022-11-20T02:13:55.128Z,56.49
2022-11-20T02:14:55.088Z,56.39
2022-11-20T02:15:55.091Z,56.06
2022-11-20T02:16:55.130Z,56.13
2022-11-20T02:17:55.124Z,56.17
2022-11-20T02:18:55.067Z,56.92
2022-11-20T02:19:55.060Z,56.22
2022-11-20T02:20:55.136Z,55.92
2022-11-20T02:21:55.184Z,56.06
2022-11-20T02:22:55.206Z,56.63
2022-11-20T02:23:55.221Z,56.46
2022-11-20T02:24:55.119Z,56.02
2022-11-20T02:25:55.175Z,55.92
2022-11-20T02:26:55.099Z,56.03
2022-11-20T02:27:55.244Z,56.18
2022-11-20T02:28:55.157Z,56.42
2022-11-20T02:29:55.077Z,55.56
2022-11-20T02:30:56.064Z,55.47
2022-11-20T02:31:54.990Z,56.77
2022-11-20T02:32:55.074Z,55.18
2022-11-20T02:33:55.054Z,54.99
2022-11-20T02:34:54.959Z,54.90
2022-11-20T02:35:54.980Z,54.83
2022-11-20T02:36:54.955Z,55.15
2022-11-20T02:37:54.958Z,55.05
2022-11-20T02:38:55.037Z,54.97
2022-11-20T02:39:54.957Z,54.42
2022-11-20T02:40:55.804Z,54.78
2022-11-20T02:41:55.999Z,54.28
2022-11-20T02:42:54.985Z,54.24
2022-11-20T02:43:55.012Z,54.77
2022-11-20T02:44:54.990Z,54.27
2022-11-20T02:45:54.986Z,54.37
2022-11-20T02:46:55.038Z,55.03
2022-11-20T02:47:54.972Z,54.99
2022-11-20T02:48:55.057Z,55.57
2022-11-20T02:49:55.013Z,56.01
2022-11-20T02:50:55.014Z,55.86
2022-11-20T02:51:55.037Z,55.26
2022-11-20T02:52:54.906Z,54.96
2022-11-20T02:53:54.836Z,55.24
2022-11-20T02:54:54.965Z,55.06
2022-11-20T02:55:54.871Z,55.90
2022-11-20T02:56:54.961Z,55.35
2022-11-20T02:57:54.995Z,55.19
2022-11-20T02:58:54.968Z,55.19
2022-11-20T02:59:54.992Z,55.15
2022-11-20T03:00:54.954Z,55.28
2022-11-20T03:01:54.998Z,55.20
2022-11-20T03:02:54.787Z,55.43
2022-11-20T03:03:55.916Z,55.50
2022-11-20T03:04:54.886Z,55.70
2022-11-20T03:05:54.905Z,55.51
2022-11-20T03:06:54.884Z,55.52
2022-11-20T03:07:54.802Z,56.06
2022-11-20T03:08:54.751Z,55.55
2022-11-20T03:09:54.859Z,55.91
2022-11-20T03:10:54.820Z,55.51
2022-11-20T03:11:54.736Z,55.58
2022-11-20T03:12:54.761Z,55.89
2022-11-20T03:13:54.736Z,55.66
2022-11-20T03:14:54.756Z,55.60
2022-11-20T03:15:54.943Z,56.08
2022-11-20T03:16:54.796Z,55.58
2022-11-20T03:17:54.909Z,55.42
2022-11-20T03:18:54.812Z,55.34
2022-11-20T03:19:54.802Z,56.19
2022-11-20T03:20:54.794Z,55.44
2022-11-20T03:21:54.969Z,55.48
2022-11-20T03:22:54.780Z,55.40
2022-11-20T03:23:54.774Z,55.75
2022-11-20T03:24:54.768Z,55.76
2022-11-20T03:25:54.777Z,55.46
2022-11-20T03:26:54.770Z,55.44
2022-11-20T03:27:54.675Z,55.79
2022-11-20T03:28:54.668Z,55.51
2022-11-20T03:29:54.719Z,55.74
2022-11-20T03:30:54.623Z,55.48
2022-11-20T03:31:54.650Z,55.82
2022-11-20T03:32:54.645Z,55.65
2022-11-20T03:33:54.657Z,55.79
2022-11-20T03:34:54.611Z,55.59
2022-11-20T03:35:54.693Z,55.65
2022-11-20T03:36:54.686Z,55.87
2022-11-20T03:37:54.777Z,56.57
2022-11-20T03:38:54.709Z,56.26
2022-11-20T03:39:54.659Z,55.68
2022-11-20T03:40:54.676Z,55.60
2022-11-20T03:41:54.633Z,55.93
2022-11-20T03:42:54.733Z,55.69
2022-11-20T03:43:54.684Z,55.62
2022-11-20T03:44:54.688Z,56.05
2022-11-20T03:45:54.557Z,56.02
2022-11-20T03:46:54.512Z,56.15
2022-11-20T03:47:54.699Z,55.64
2022-11-20T03:48:54.647Z,55.86
2022-11-20T03:49:54.696Z,55.87
2022-11-20T03:50:54.576Z,55.99
2022-11-20T03:51:54.631Z,56.22
2022-11-20T03:52:54.572Z,55.85
2022-11-20T03:53:54.623Z,56.14
2022-11-20T03:54:54.661Z,55.79
2022-11-20T03:55:54.565Z,55.76
2022-11-20T03:56:54.619Z,55.67
2022-11-20T03:57:54.591Z,56.04
2022-11-20T03:58:54.545Z,55.85
2022-11-20T03:59:54.528Z,55.87
2022-11-20T04:00:54.500Z,55.61
2022-11-20T04:01:54.592Z,55.96
2022-11-20T04:02:54.449Z,55.51
2022-11-20T04:03:54.429Z,55.76
2022-11-20T04:04:54.459Z,56.44
2022-11-20T04:05:54.446Z,55.82
2022-11-20T04:06:54.557Z,56.58
2022-11-20T04:07:54.617Z,55.87
2022-11-20T04:08:54.474Z,55.82
2022-11-20T04:09:54.547Z,56.00
2022-11-20T04:10:54.530Z,55.46
2022-11-20T04:11:54.481Z,55.43
2022-11-20T04:12:54.493Z,55.63
2022-11-20T04:13:54.576Z,55.61
2022-11-20T04:14:54.465Z,55.87
2022-11-20T04:15:54.408Z,56.57
2022-11-20T04:16:54.478Z,56.38
2022-11-20T04:17:54.478Z,56.00
2022-11-20T04:18:54.416Z,55.88
2022-11-20T04:19:54.368Z,55.56
2022-11-20T04:20:54.324Z,55.94
2022-11-20T04:21:54.415Z,55.67
2022-11-20T04:22:57.113Z,56.01
2022-11-20T04:23:54.378Z,55.86
2022-11-20T04:24:54.538Z,56.49
2022-11-20T04:25:54.428Z,56.39
2022-11-20T04:26:54.428Z,55.85
2022-11-20T04:27:54.428Z,55.63
2022-11-20T04:28:54.455Z,56.07
2022-11-20T04:29:54.407Z,56.72
2022-11-20T04:30:54.433Z,55.69
2022-11-20T04:31:54.340Z,55.60
2022-11-20T04:32:54.502Z,56.82
2022-11-20T04:33:54.339Z,56.34
2022-11-20T04:34:54.395Z,56.13
2022-11-20T04:35:54.421Z,55.76
2022-11-20T04:36:54.377Z,55.78
2022-11-20T04:37:54.276Z,56.22
2022-11-20T04:38:57.067Z,55.58
2022-11-20T04:39:55.362Z,55.37
2022-11-20T04:40:54.220Z,55.34
2022-11-20T04:41:54.347Z,55.30
2022-11-20T04:42:54.286Z,55.37
2022-11-20T04:43:54.336Z,56.55
2022-11-20T04:44:54.274Z,56.22
2022-11-20T04:45:54.264Z,55.46
2022-11-20T04:46:54.258Z,55.67
2022-11-20T04:47:54.367Z,55.93
2022-11-20T04:48:54.247Z,57.29
2022-11-20T04:49:54.422Z,56.00
2022-11-20T04:50:54.250Z,55.90
2022-11-20T04:51:54.225Z,56.09
2022-11-20T04:52:54.143Z,56.30
2022-11-20T04:53:54.145Z,55.67
2022-11-20T04:54:54.178Z,56.71
2022-11-20T04:55:54.345Z,56.17
2022-11-20T04:56:54.098Z,55.63
2022-11-20T04:57:54.237Z,55.57
2022-11-20T04:58:54.198Z,56.35
2022-11-20T04:59:54.259Z,56.47
2022-11-20T05:00:54.189Z,56.07
2022-11-20T05:01:54.295Z,55.82
2022-11-20T05:02:54.055Z,55.58
2022-11-20T05:03:54.164Z,55.56
2022-11-20T05:04:54.130Z,55.63
2022-11-20T05:05:54.164Z,56.15
2022-11-20T05:06:54.122Z,55.49
2022-11-20T05:07:54.211Z,55.57
2022-11-20T05:08:54.119Z,55.72
2022-11-20T05:09:54.107Z,55.76
2022-11-20T05:10:54.131Z,56.41
2022-11-20T05:11:54.056Z,56.40
2022-11-20T05:12:53.990Z,55.85
2022-11-20T05:13:54.120Z,57.22
2022-11-20T05:14:54.055Z,55.85
2022-11-20T05:15:54.074Z,55.77
2022-11-20T05:16:54.148Z,55.67
2022-11-20T05:17:54.080Z,55.51
2022-11-20T05:18:54.046Z,55.81
2022-11-20T05:19:54.070Z,55.72
2022-11-20T05:20:53.949Z,55.91
2022-11-20T05:21:54.066Z,55.55
2022-11-20T05:22:54.039Z,55.54
2022-11-20T05:23:54.025Z,55.97
2022-11-20T05:24:53.927Z,56.09
2022-11-20T05:25:58.700Z,56.74
2022-11-20T05:26:56.060Z,55.98
2022-11-20T05:27:54.056Z,56.17
2022-11-20T05:28:54.006Z,55.70
2022-11-20T05:29:53.943Z,55.92
2022-11-20T05:30:53.969Z,56.60
2022-11-20T05:31:53.973Z,55.63
2022-11-20T05:32:53.877Z,56.13
2022-11-20T05:33:53.989Z,56.03
2022-11-20T05:34:53.881Z,56.43
2022-11-20T05:35:53.918Z,56.15
2022-11-20T05:36:53.932Z,55.58
2022-11-20T05:37:53.975Z,56.36
2022-11-20T05:38:59.723Z,55.99
2022-11-20T05:39:55.798Z,56.64
2022-11-20T05:40:53.869Z,56.36
2022-11-20T05:41:53.931Z,55.75
2022-11-20T05:42:53.869Z,56.09
2022-11-20T05:43:53.967Z,56.38
2022-11-20T05:44:53.982Z,55.86
2022-11-20T05:45:53.890Z,55.63
2022-11-20T05:46:53.971Z,56.15
2022-11-20T05:47:53.827Z,55.96
2022-11-20T05:48:53.823Z,55.87
2022-11-20T05:49:53.755Z,56.30
2022-11-20T05:50:53.745Z,55.96
2022-11-20T05:51:53.740Z,55.97
2022-11-20T05:52:53.736Z,55.47
2022-11-20T05:53:53.725Z,56.18
2022-11-20T05:54:53.771Z,55.74
2022-11-20T05:55:53.729Z,55.77
2022-11-20T05:56:53.820Z,55.75
2022-11-20T05:57:53.795Z,55.71
2022-11-20T05:58:53.795Z,56.20
2022-11-20T05:59:53.870Z,56.58
2022-11-20T06:00:53.826Z,56.43
2022-11-20T06:01:53.805Z,55.66
2022-11-20T06:02:53.743Z,55.50
2022-11-20T06:03:53.751Z,55.50
2022-11-20T06:04:53.737Z,56.17
2022-11-20T06:05:53.817Z,57.26
2022-11-20T06:06:53.771Z,55.57
2022-11-20T06:07:53.692Z,55.76
2022-11-20T06:08:53.690Z,56.08
2022-11-20T06:09:53.635Z,56.08
2022-11-20T06:10:53.705Z,56.04
2022-11-20T06:11:53.686Z,55.91
2022-11-20T06:12:53.614Z,56.52
2022-11-20T06:13:53.587Z,56.21
2022-11-20T06:14:53.747Z,55.73
2022-11-20T06:15:53.674Z,55.68
2022-11-20T06:16:53.751Z,56.81
2022-11-20T06:17:53.680Z,56.42
2022-11-20T06:18:53.762Z,55.76
2022-11-20T06:19:53.666Z,55.55
2022-11-20T06:20:53.649Z,55.56
2022-11-20T06:21:53.750Z,55.89
2022-11-20T06:22:53.662Z,56.31
2022-11-20T06:23:53.684Z,55.70
2022-11-20T06:24:53.744Z,55.53
2022-11-20T06:25:53.585Z,55.82
2022-11-20T06:26:53.543Z,56.35
2022-11-20T06:27:53.747Z,56.07
2022-11-20T06:28:53.709Z,55.27
2022-11-20T06:29:53.613Z,55.11
2022-11-20T06:30:53.583Z,56.07
2022-11-20T06:31:53.598Z,56.49
2022-11-20T06:32:53.617Z,55.92
2022-11-20T06:33:53.611Z,56.58
2022-11-20T06:34:53.549Z,56.04
2022-11-20T06:35:59.641Z,56.95
2022-11-20T06:36:55.587Z,57.39
2022-11-20T06:37:53.595Z,56.68
2022-11-20T06:38:53.613Z,56.11
2022-11-20T06:39:53.621Z,56.42
2022-11-20T06:40:53.444Z,57.52
2022-11-20T06:41:58.520Z,56.96
2022-11-20T06:42:55.537Z,56.62
2022-11-20T06:43:54.467Z,58.21
2022-11-20T06:44:53.444Z,62.22
2022-11-20T06:45:53.373Z,60.13
2022-11-20T06:46:53.435Z,58.11
2022-11-20T06:47:53.421Z,58.78
2022-11-20T06:48:53.478Z,58.59
2022-11-20T06:49:53.381Z,57.07
2022-11-20T06:50:53.374Z,60.18
2022-11-20T06:51:54.468Z,59.32
2022-11-20T06:52:53.477Z,58.08
2022-11-20T06:53:53.520Z,55.89
2022-11-20T06:54:53.442Z,56.99
2022-11-20T06:55:53.425Z,58.67
2022-11-20T06:56:53.399Z,57.66
2022-11-20T06:57:55.912Z,58.95
2022-11-20T06:58:54.452Z,56.82
2022-11-20T06:59:53.387Z,58.15
2022-11-20T07:00:53.463Z,56.86
2022-11-20T07:01:53.309Z,58.21
2022-11-20T07:02:53.297Z,60.56
2022-11-20T07:03:54.576Z,58.93
2022-11-20T07:04:54.332Z,58.79
2022-11-20T07:05:53.279Z,60.34
2022-11-20T07:06:53.260Z,58.15
2022-11-20T07:07:53.297Z,57.59
2022-11-20T07:08:53.346Z,58.25
2022-11-20T07:09:53.429Z,57.50
2022-11-20T07:10:53.391Z,55.63
2022-11-20T07:11:53.342Z,56.63
2022-11-20T07:12:53.342Z,56.41
2022-11-20T07:13:53.334Z,56.73
2022-11-20T07:14:53.304Z,56.58
2022-11-20T07:15:53.332Z,56.33
2022-11-20T07:16:53.453Z,56.73
2022-11-20T07:17:53.328Z,57.29
2022-11-20T07:18:53.271Z,55.79
2022-11-20T07:19:53.285Z,56.68
2022-11-20T07:20:53.455Z,56.16
2022-11-20T07:21:53.283Z,57.04
2022-11-20T07:22:53.271Z,56.90
2022-11-20T07:23:53.220Z,56.63
2022-11-20T07:24:53.119Z,55.74
2022-11-20T07:25:53.197Z,56.28
2022-11-20T07:26:53.313Z,56.15
2022-11-20T07:27:53.374Z,56.60
2022-11-20T07:28:53.310Z,56.06
2022-11-20T07:29:53.306Z,55.50
2022-11-20T07:30:53.269Z,56.83
2022-11-20T07:31:53.295Z,56.11
2022-11-20T07:32:53.224Z,56.69
2022-11-20T07:33:53.143Z,57.60
2022-11-20T07:34:53.187Z,57.34
2022-11-20T07:35:53.177Z,56.06
2022-11-20T07:36:53.179Z,57.00
2022-11-20T07:37:53.245Z,56.01
2022-11-20T07:38:53.156Z,56.08
2022-11-20T07:39:53.173Z,56.18
2022-11-20T07:40:53.050Z,56.62
2022-11-20T07:41:53.100Z,55.05
2022-11-20T09:00:36.989Z,49.05
2022-11-20T09:01:35.874Z,50.75
2022-11-20T09:02:35.855Z,48.05
2022-11-20T09:03:35.827Z,48.40
2022-11-20T09:04:36.063Z,50.38
2022-11-20T09:05:35.928Z,50.07
2022-11-20T09:06:35.909Z,53.11
2022-11-20T09:07:35.934Z,53.46
2022-11-20T09:08:35.912Z,55.05
2022-11-20T09:09:35.880Z,54.67
2022-11-20T09:10:35.795Z,51.48
2022-11-20T09:11:35.879Z,50.97
2022-11-20T09:12:35.948Z,54.03
2022-11-20T09:13:35.881Z,54.57
2022-11-20T09:14:35.880Z,55.16
2022-11-20T09:15:35.871Z,55.49
2022-11-20T09:16:35.915Z,53.51
2022-11-20T09:17:36.869Z,52.89
2022-11-20T09:18:35.816Z,54.09
2022-11-20T09:19:36.405Z,53.84
2022-11-20T09:20:36.879Z,55.94
2022-11-20T09:21:35.809Z,55.90
2022-11-20T09:22:35.794Z,51.52
2022-11-20T09:23:35.827Z,57.24
2022-11-20T09:24:35.915Z,53.48
2022-11-20T09:25:36.772Z,54.09
2022-11-20T09:26:35.879Z,53.43
2022-11-20T09:27:35.747Z,55.71
2022-11-20T09:28:38.549Z,56.19
2022-11-20T09:29:35.830Z,53.87
2022-11-20T09:30:35.786Z,54.45
2022-11-20T09:31:35.797Z,57.13
2022-11-20T09:32:35.769Z,54.85
2022-11-20T09:33:35.662Z,56.50
2022-11-20T09:34:35.678Z,53.18
2022-11-20T09:35:35.624Z,53.26
2022-11-20T09:36:35.734Z,53.45
2022-11-20T09:37:35.685Z,56.12
2022-11-20T09:38:35.737Z,54.61
2022-11-20T09:39:35.784Z,55.71
2022-11-20T09:40:35.685Z,55.49
2022-11-20T09:41:35.685Z,54.31
2022-11-20T09:42:35.722Z,57.07
2022-11-20T09:43:36.390Z,57.00
2022-11-20T09:44:35.725Z,58.29
2022-11-20T09:45:35.725Z,58.96
2022-11-20T09:46:35.643Z,58.45
2022-11-20T09:47:35.693Z,57.71
2022-11-20T09:48:35.610Z,57.51
2022-11-20T09:49:35.591Z,58.37
2022-11-20T09:50:35.589Z,57.01
2022-11-20T09:51:35.533Z,59.48
2022-11-20T09:52:35.533Z,58.13
2022-11-20T09:53:35.568Z,57.66
2022-11-20T09:54:35.690Z,58.59
2022-11-20T09:55:35.533Z,59.47
2022-11-20T09:56:35.464Z,58.68
2022-11-20T09:57:35.491Z,58.82
2022-11-20T09:58:35.592Z,58.93
2022-11-20T09:59:35.681Z,59.44
2022-11-20T10:00:35.755Z,58.16
2022-11-20T10:01:35.606Z,59.37
2022-11-20T10:02:35.508Z,58.11
2022-11-20T10:03:35.511Z,58.84
2022-11-20T10:04:38.154Z,58.69
2022-11-20T10:05:36.524Z,58.62
2022-11-20T10:06:35.516Z,58.68
2022-11-20T10:07:35.512Z,58.68
2022-11-20T10:08:35.433Z,58.48
2022-11-20T10:09:39.151Z,59.84
2022-11-20T10:10:39.783Z,58.33
2022-11-20T10:11:37.507Z,59.66
2022-11-20T10:12:35.403Z,59.32
2022-11-20T10:13:44.822Z,59.84
2022-11-20T10:14:35.422Z,59.67
2022-11-20T10:15:35.592Z,59.18
2022-11-20T10:16:40.628Z,60.00
2022-11-20T10:17:37.383Z,58.81
2022-11-20T10:18:35.446Z,57.84
2022-11-20T10:19:35.405Z,57.98
2022-11-20T10:20:35.435Z,61.40
2022-11-20T10:21:35.448Z,59.77
2022-11-20T10:22:35.548Z,59.67
2022-11-20T10:23:35.496Z,60.55
2022-11-20T10:24:35.482Z,59.13
2022-11-20T10:25:35.401Z,59.28
2022-11-20T10:26:35.391Z,59.19
2022-11-20T10:27:35.404Z,59.15
2022-11-20T10:28:35.260Z,58.57
2022-11-20T10:29:35.283Z,59.94
2022-11-20T10:30:35.420Z,59.29
2022-11-20T10:31:35.322Z,58.26
2022-11-20T10:32:35.288Z,60.06
2022-11-20T10:33:57.094Z,58.68
2022-11-20T10:34:37.218Z,58.72
2022-11-20T10:35:35.389Z,58.04
2022-11-20T10:36:37.987Z,58.53
2022-11-20T10:37:35.355Z,59.29
2022-11-20T10:38:35.323Z,59.04
2022-11-20T10:39:35.469Z,59.11
2022-11-20T10:40:35.330Z,58.59
2022-11-20T10:41:37.071Z,58.41
2022-11-20T10:42:36.322Z,58.88
2022-11-20T10:43:35.169Z,58.67
2022-11-20T10:44:35.161Z,59.09
2022-11-20T10:45:35.249Z,60.18
2022-11-20T10:46:35.153Z,58.94
2022-11-20T10:47:35.168Z,58.85
2022-11-20T10:48:35.190Z,58.77
2022-11-20T10:49:35.188Z,58.05
2022-11-20T10:50:35.177Z,58.78
2022-11-20T10:51:35.107Z,59.16
2022-11-20T10:52:35.293Z,58.52
2022-11-20T10:53:35.243Z,57.90
2022-11-20T10:54:35.233Z,58.57
2022-11-20T10:55:35.247Z,58.62
2022-11-20T10:56:35.163Z,59.78
2022-11-20T10:57:35.192Z,59.65
2022-11-20T10:58:35.430Z,58.99
2022-11-20T10:59:37.888Z,58.58
2022-11-20T11:00:35.326Z,60.01
2022-11-20T11:01:35.362Z,58.47
2022-11-20T11:02:36.092Z,58.10
2022-11-20T11:03:35.434Z,57.92
2022-11-20T11:04:35.096Z,57.69
2022-11-20T11:05:35.213Z,59.01
2022-11-20T11:06:35.049Z,59.39
2022-11-20T11:07:35.140Z,57.55
2022-11-20T11:08:35.121Z,56.66
2022-11-20T11:09:35.181Z,56.03
2022-11-20T11:10:35.172Z,56.61
2022-11-20T11:11:35.079Z,56.55
2022-11-20T11:12:35.136Z,56.53
2022-11-20T11:13:35.063Z,56.91
2022-11-20T11:14:35.125Z,57.30
2022-11-20T11:15:35.081Z,55.79
2022-11-20T11:16:34.944Z,57.46
2022-11-20T11:17:34.947Z,57.48
2022-11-20T11:18:35.072Z,58.07
2022-11-20T11:19:34.940Z,57.35
2022-11-20T11:20:34.945Z,57.22
2022-11-20T11:21:34.963Z,56.42
2022-11-20T11:22:34.944Z,57.20
2022-11-20T11:23:34.973Z,58.22
2022-11-20T11:24:42.163Z,57.28
2022-11-20T11:25:37.137Z,58.14
2022-11-20T11:26:34.975Z,57.67
2022-11-20T11:27:40.964Z,58.35
2022-11-20T11:28:34.969Z,57.57
2022-11-20T11:29:41.189Z,59.03
2022-11-20T11:30:35.014Z,58.45
2022-11-20T11:31:35.203Z,57.17
2022-11-20T11:32:34.994Z,57.97
2022-11-20T11:33:34.928Z,58.92
2022-11-20T11:34:35.553Z,58.05
2022-11-20T11:35:34.866Z,59.00
2022-11-20T11:36:35.110Z,57.73
2022-11-20T11:37:34.872Z,57.81
2022-11-20T11:38:34.910Z,59.00
2022-11-20T11:39:35.258Z,58.49
2022-11-20T11:40:34.819Z,57.66
2022-11-20T11:41:34.975Z,58.10
2022-11-20T11:42:35.969Z,57.61
2022-11-20T11:43:36.838Z,58.05
2022-11-20T11:44:35.941Z,59.01
2022-11-20T11:45:34.876Z,57.93
2022-11-20T11:46:34.894Z,58.63
2022-11-20T11:47:34.867Z,58.72
2022-11-20T11:48:34.896Z,57.40
2022-11-20T11:49:34.894Z,57.54
2022-11-20T11:50:34.766Z,58.35
2022-11-20T11:51:34.726Z,58.21
2022-11-20T11:52:34.968Z,57.31
2022-11-20T11:53:34.782Z,58.02
2022-11-20T11:54:34.754Z,58.24
2022-11-20T11:55:34.769Z,57.60
2022-11-20T11:56:34.720Z,58.41
2022-11-20T11:57:34.835Z,59.55
2022-11-20T11:58:34.838Z,58.76
2022-11-20T11:59:34.772Z,57.89
2022-11-20T12:00:34.763Z,57.56
2022-11-20T12:01:34.774Z,58.33
2022-11-20T12:02:34.710Z,57.80
2022-11-20T12:03:34.835Z,57.36
2022-11-20T12:04:34.786Z,58.39
2022-11-20T12:05:34.710Z,56.74
2022-11-20T12:06:34.649Z,58.37
2022-11-20T12:07:49.858Z,59.28
2022-11-20T12:08:36.931Z,58.17
2022-11-20T12:09:34.651Z,57.42
2022-11-20T12:10:36.229Z,58.25
2022-11-20T12:11:34.636Z,57.18
2022-11-20T12:12:34.680Z,58.38
2022-11-20T12:13:34.624Z,56.97
2022-11-20T12:14:34.647Z,56.80
2022-11-20T12:15:34.610Z,58.47
2022-11-20T12:16:34.661Z,58.62
2022-11-20T12:17:34.770Z,57.65
2022-11-20T12:18:34.634Z,57.41
2022-11-20T12:19:34.697Z,58.27
2022-11-20T12:20:34.636Z,57.44
2022-11-20T12:21:34.696Z,57.90
2022-11-20T12:22:34.632Z,57.66
2022-11-20T12:23:34.658Z,58.07
2022-11-20T12:24:34.691Z,58.73
2022-11-20T12:25:34.794Z,59.85
2022-11-20T12:26:34.561Z,57.84
2022-11-20T12:27:34.528Z,58.13
2022-11-20T12:28:34.571Z,58.69
2022-11-20T12:29:34.626Z,58.46
2022-11-20T12:30:34.733Z,59.75
2022-11-20T12:31:34.556Z,58.09
2022-11-20T12:32:34.600Z,58.00
2022-11-20T12:33:34.536Z,58.16
2022-11-20T12:34:34.533Z,57.61
2022-11-20T12:35:34.502Z,58.78
2022-11-20T12:36:34.752Z,58.52
2022-11-20T12:37:34.486Z,57.83
2022-11-20T12:38:34.564Z,58.01
2022-11-20T12:39:34.487Z,58.98
2022-11-20T12:40:34.575Z,58.15
2022-11-20T12:41:34.538Z,58.05
2022-11-20T12:42:34.439Z,56.95
2022-11-20T12:43:34.489Z,58.24
2022-11-20T12:44:34.418Z,59.30
2022-11-20T12:45:34.469Z,60.83
2022-11-20T12:46:34.574Z,58.01
2022-11-20T12:47:34.421Z,60.50
2022-11-20T12:48:34.439Z,58.34
2022-11-20T12:49:34.439Z,58.48
2022-11-20T12:50:38.765Z,58.97
2022-11-20T12:51:36.342Z,57.99
2022-11-20T12:52:35.477Z,58.30
2022-11-20T12:53:34.404Z,59.27
2022-11-20T12:54:34.405Z,58.32
2022-11-20T12:55:34.378Z,57.71
2022-11-20T12:56:34.590Z,58.19
2022-11-20T12:57:34.419Z,59.11
2022-11-20T12:58:34.423Z,57.75
2022-11-20T12:59:34.418Z,58.31
2022-11-20T13:00:34.443Z,57.95
2022-11-20T13:01:34.398Z,57.94
2022-11-20T13:02:34.259Z,58.46
2022-11-20T13:03:35.483Z,58.67
2022-11-20T13:04:34.313Z,58.57
2022-11-20T13:05:34.288Z,58.52
2022-11-20T13:06:34.299Z,57.63
2022-11-20T13:07:34.323Z,56.84
2022-11-20T13:08:34.362Z,56.22
2022-11-20T13:09:34.307Z,56.68
2022-11-20T13:10:34.254Z,57.74
2022-11-20T13:11:34.285Z,56.53
2022-11-20T13:12:34.322Z,56.73
2022-11-20T13:13:34.309Z,56.79
2022-11-20T13:14:34.405Z,56.82
2022-11-20T13:15:34.257Z,56.53
2022-11-20T13:16:34.267Z,56.92
2022-11-20T13:17:34.251Z,57.45
2022-11-20T13:18:34.277Z,57.76
2022-11-20T13:19:34.462Z,58.09
2022-11-20T13:20:34.181Z,57.49
2022-11-20T13:21:34.169Z,58.94
2022-11-20T13:22:34.167Z,58.87
2022-11-20T13:23:34.156Z,58.63
2022-11-20T13:24:34.322Z,59.21
2022-11-20T13:25:34.161Z,59.12
2022-11-20T13:26:34.089Z,58.70
2022-11-20T13:27:34.118Z,57.81
2022-11-20T13:28:34.132Z,57.81
2022-11-20T13:29:34.192Z,57.06
2022-11-20T13:30:34.368Z,57.88
2022-11-20T13:31:34.123Z,59.22
2022-11-20T13:32:34.192Z,58.16
2022-11-20T13:33:34.145Z,59.57
2022-11-20T13:34:34.196Z,57.98
2022-11-20T13:35:34.182Z,58.69
2022-11-20T13:36:34.216Z,58.89
2022-11-20T13:37:34.098Z,61.20
2022-11-20T13:38:34.092Z,60.85
2022-11-20T13:39:35.055Z,60.70
2022-11-20T13:40:34.143Z,61.05
2022-11-20T13:41:34.123Z,58.35
2022-11-20T13:42:34.018Z,58.47
2022-11-20T13:43:34.022Z,57.55
2022-11-20T13:44:34.035Z,58.57
2022-11-20T13:45:33.966Z,58.61
2022-11-20T13:46:33.992Z,59.14
2022-11-20T13:47:34.190Z,57.73
2022-11-20T13:48:34.026Z,57.69
2022-11-20T13:49:34.107Z,56.97
2022-11-20T13:50:34.039Z,56.71
2022-11-20T13:51:34.074Z,56.90
2022-11-20T13:52:34.112Z,57.45
2022-11-20T13:53:34.066Z,57.87
2022-11-20T13:54:33.998Z,57.40
2022-11-20T13:55:33.995Z,57.30
2022-11-20T13:56:34.008Z,57.67
2022-11-20T13:57:33.964Z,57.95
2022-11-20T13:58:34.059Z,57.38
2022-11-20T13:59:34.031Z,57.53
2022-11-20T14:00:34.097Z,57.93
2022-11-20T14:01:33.974Z,57.29
2022-11-20T14:02:34.037Z,58.24
2022-11-20T14:03:58.855Z,57.34
2022-11-20T14:04:35.932Z,61.99
2022-11-20T14:05:33.879Z,58.61
2022-11-20T14:06:33.915Z,57.34
2022-11-20T14:07:33.848Z,59.07
2022-11-20T14:08:34.297Z,58.48
2022-11-20T14:09:33.985Z,56.82
2022-11-20T14:10:33.918Z,57.77